KBXA/BXA METAR and TAF weather

Enter ICAO airport designator
Station Type Date Time Source
KBXA METAR 2021/10/24 20:55 UTC NOAA

KBXA 242055Z AUTO 15005KT 10SM SCT028 SCT065 27/20 A2993 RMK AO2 T02740204


Station Type Date Time Source
KBXA Decoded METAR 2021/10/24 20:55 UTC NOAA

Bogalusa, George R Carr Memorial Air Field, LA, United States (KBXA) 30-48-49N 089-51-53W
Oct 24, 2021 - 04:55 PM EDT / 2021.10.24 2055 UTC
Wind: from the SSE (150 degrees) at 6 MPH (5 KT):0
Visibility: 10 mile(s):0
Sky conditions: partly cloudy
Temperature: 81.3 F (27.4 C)
Dew Point: 68.7 F (20.4 C)
Relative Humidity: 65%
Pressure (altimeter): 29.93 in. Hg (1013 hPa)
ob: KBXA 242055Z AUTO 15005KT 10SM SCT028 SCT065 27/20 A2993 RMK AO2 T02740204
cycle: 21

Station Type Date Time Source
KBXA TAF UTC NOAA

Error!

Example: see airport list